• Join FlightAware (Why Join?)
  • Login
  • US Flag 
03:37AM EDT


 

Airport Tracker/Info


-or-


 

Live Flight TrackerFlight Track Log ✈ GJS3710 ✈ 01-May-2013 ✈ KMSY - KORD

Flight Track Log - Related Links

Times and Time Zones

All times are in EDT time to prevent confusion due to time zone crossing. See the GJS3710 flight status page for this flight to view local times or setup timezone preferences in your user account.

Time Position Orientation Groundspeed Altitude Reporting Facility
EDT Latitude Longitude Course Direction KTS MPH feet Rate Location/Type
04:01PM 29.9781 -90.2539 65° Northeast 155 178 800  Level Houston Center
04:01PM 29.9408 -90.2600 188° South 188 216 2,900 2,460 Climbing Houston Center
04:03PM 29.9342 -90.1811 96° East 269 310 5,600 2,520 Climbing Houston Center
04:04PM 29.9542 -90.0892 76° East 262 302 8,600 2,460 Climbing Houston Center
04:05PM 29.9831 -90.0089 67° East 280 322 10,900 2,220 Climbing Houston Center
04:06PM 30.0828 -89.5180 65° Northeast  Level FlightAware Approximate
04:06PM 30.0186 -89.9131 67° East 290 334 13,400  Level Houston Center
04:07PM 30.0042 -89.8158 100° East 313 360 15,300 1,980 Climbing Houston Center
04:08PM 29.9444 -89.7492 136° Southeast 305 351 17,500 1,920 Climbing Houston Center
04:09PM 29.8892 -89.6694 129° Southeast 331 381 19,300 1,740 Climbing Houston Center
04:10PM 29.8600 -89.5650 108° East 343 395 21,100 1,620 Climbing Houston Center
04:11PM 29.8436 -89.4292 98° East 356 410 22,700 1,080 Climbing Houston Center
04:12PM 29.8464 -89.3000 89° East 400 460 23,400 780 Climbing Houston Center
04:13PM 29.8475 -89.1653 89° East 422 486 24,400 960 Climbing Houston Center
04:14PM 29.8492 -89.0253 89° East 438 504 25,400 960 Climbing Houston Center
04:15PM 29.8536 -88.8814 88° East 450 518 26,400 1,200 Climbing Houston Center
04:16PM 29.8608 -88.7050 87° East 459 528 28,000 1,440 Climbing Houston Center
04:17PM 29.8844 -88.5644 79° East 454 522 29,400 1,080 Climbing Houston Center
04:18PM 29.9353 -88.4489 63° Northeast 452 520 30,300 960 Climbing Houston Center
04:19PM 30.0381 -88.3186 48° Northeast 460 529 31,500 960 Climbing Houston Center
04:20PM 30.1453 -88.2422 32° Northeast 457 526 32,400 840 Climbing Houston Center
04:21PM 30.2511 -88.1625 33° Northeast 456 525 33,300 780 Climbing Houston Center
04:22PM 30.3628 -88.0928 28° Northeast 463 533 34,100 720 Climbing Houston Center
04:23PM 30.4869 -88.0864 North 452 520 34,800 540 Climbing Houston Center
04:24PM 30.6047 -88.1300 342° North 444 511 35,300 420 Climbing Houston Center
04:25PM 30.7303 -88.1797 341° North 440 506 35,700 480 Climbing Houston Center
04:26PM 30.8486 -88.2281 341° North 447 514 36,300 480 Climbing Houston Center
04:27PM 30.9908 -88.2853 341° North 451 519 36,800 480 Climbing Houston Center
04:29PM 31.1142 -88.3339 341° North 463 533 37,300 480 Climbing Houston Center
04:30PM 31.2314 -88.3811 341° North 455 524 37,900 300 Climbing Houston Center
04:31PM 31.3556 -88.4319 341° North 463 533 38,000  Climbing Houston Center
04:32PM 31.4781 -88.4817 341° North 467 537 38,000  Level Houston Center
04:33PM 31.6039 -88.5322 341° North 476 548 38,000  Level Houston Center
04:33PM 31.7114 -88.5822 338° Northwest 467 537 38,000  Level Memphis Center
04:34PM 31.8375 -88.6333 341° North 467 537 38,000  Level Memphis Center
04:35PM 31.9675 -88.6825 342° North 467 537 38,000  Level Memphis Center
04:36PM 32.0933 -88.7317 342° North 473 544 38,000  Level Memphis Center
04:37PM 32.2214 -88.7858 340° North 473 544 38,000  Level Memphis Center
04:38PM 32.3453 -88.8400 340° North 473 544 38,000  Level Memphis Center
04:39PM 32.4733 -88.8922 341° North 473 544 38,000  Level Memphis Center
04:40PM 32.6011 -88.9444 341° North 473 544 38,000  Level Memphis Center
04:41PM 32.7292 -88.9992 340° North 478 550 38,000  Level Memphis Center
04:42PM 32.8592 -89.0514 341° North 483 556 38,000  Level Memphis Center
04:43PM 32.9869 -89.1042 341° North 488 562 38,000  Level Memphis Center
04:44PM 33.1253 -89.1642 340° North 488 562 38,000  Level Memphis Center
04:45PM 33.2511 -89.2169 341° North 488 562 38,000  Level Memphis Center
04:46PM 33.3769 -89.2725 340° North 488 562 38,000  Level Memphis Center
04:47PM 33.5047 -89.3258 341° North 483 556 38,000  Level Memphis Center
04:48PM 33.6303 -89.3842 339° North 483 556 38,000  Level Memphis Center
04:49PM 33.7603 -89.4378 341° North 483 556 38,000  Level Memphis Center
04:50PM 33.8836 -89.4889 341° North 483 556 38,000  Level Memphis Center
04:51PM 34.0114 -89.5453 340° North 488 562 38,000  Level Memphis Center
04:52PM 34.1392 -89.5992 341° North 488 562 38,000  Level Memphis Center
04:53PM 34.2647 -89.6558 340° North 488 562 38,000  Level Memphis Center
04:54PM 34.3922 -89.7103 341° North 494 568 38,000  Level Memphis Center
04:55PM 34.5197 -89.7672 340° North 488 562 38,000  Level Memphis Center
04:56PM 34.6306 -89.8169 340° North 488 562 38,000  Level Memphis Center
04:57PM 34.7603 -89.8769 339° North 483 556 38,000  Level Memphis Center
04:58PM 34.9044 -89.9494 338° Northwest 493 567 38,000  Level Memphis Center
04:59PM 35.0278 -89.9969 342° North 487 560 38,000  Level Memphis Center
05:00PM 35.1508 -90.0522 340° North 480 552 38,000  Level Memphis Center
05:01PM 35.2761 -90.1078 340° North 473 544 38,000  Level Memphis Center
05:02PM 35.3994 -90.1633 340° North 467 537 38,000  Level Memphis Center
05:03PM 35.5225 -90.2219 339° North 474 545 38,000  Level Memphis Center
05:04PM 35.6478 -90.2803 339° North 475 547 38,000  Level Memphis Center
05:05PM 35.7500 -90.3186 343° North 460 529 38,000  Level Memphis Center
05:06PM 35.8833 -90.3467 350° North 460 529 38,000  Level Memphis Center
05:07PM 36.0189 -90.3750 350° North 472 543 38,000  Level Memphis Center
05:08PM 36.1461 -90.4058 349° North 472 543 38,000  Level Memphis Center
05:09PM 36.2817 -90.4317 351° North 472 543 38,000  Level Memphis Center
05:10PM 36.4108 -90.4600 350° North 472 543 38,000  Level Memphis Center
05:11PM 36.5400 -90.4886 350° North 472 543 38,000  Level Memphis Center
05:13PM 36.7500 -90.5311 351° North 475 547 38,000  Level Kansas City Center
05:14PM 36.8811 -90.5600 350° North 475 547 38,000  Level Kansas City Center
05:15PM 37.0111 -90.5886 350° North 474 545 38,000  Level Kansas City Center
05:16PM 37.1444 -90.6172 350° North 480 552 38,000  Level Kansas City Center
05:17PM 37.2744 -90.6400 352° North 473 544 38,000  Level Kansas City Center
05:18PM 37.4214 -90.6322 North 477 549 38,000  Level Kansas City Center
05:19PM 37.5539 -90.6286 North 477 549 38,000 -240 Level Kansas City Center
05:20PM 37.6869 -90.6233 North 478 550 37,600 -480 Descending Kansas City Center
05:21PM 37.8219 -90.6194 North 482 555 37,100 -300 Descending Kansas City Center
05:22PM 37.9572 -90.6153 North 486 559 37,000 -60 Descending Kansas City Center
05:23PM 38.1197 -90.6114 North 486 559 37,000  Level Kansas City Center
05:24PM 38.2547 -90.6067 North 485 558 37,000  Level Kansas City Center
05:25PM 38.3900 -90.6025 North 485 558 37,000  Level Kansas City Center
05:26PM 38.5317 -90.5992 North 487 560 37,000 -240 Level Kansas City Center
05:27PM 38.6686 -90.5950 North 489 563 36,600 -660 Descending Kansas City Center
05:28PM 38.8061 -90.5897 North 492 566 35,700 -840 Descending Kansas City Center
05:30PM 38.9464 -90.5869 North 493 567 34,900 -840 Descending Kansas City Center
05:31PM 39.0806 -90.5819 North 484 557 34,000 -780 Descending Kansas City Center
05:32PM 39.2386 -90.5289 15° North 496 571 33,400 -540 Descending Kansas City Center
05:33PM 39.3714 -90.4664 20° North 504 580 33,000 -240 Descending Kansas City Center
05:34PM 39.5017 -90.4044 20° North 501 577 33,000  Level Kansas City Center
05:35PM 39.6336 -90.3419 20° North 504 580 33,000  Level Kansas City Center
05:36PM 39.7744 -90.2736 20° North 504 580 33,000  Level Kansas City Center
05:37PM 39.9042 -90.2100 21° North 501 577 33,000  Level Kansas City Center
05:38PM 40.0322 -90.1472 21° North 496 571 33,000  Level Chicago Center
05:39PM 40.1622 -90.0842 20° North 497 572 33,000  Level Chicago Center
05:40PM 40.2906 -90.0219 20° North 493 567 33,000  Level Chicago Center
05:41PM 40.4436 -89.9464 21° North 490 564 33,000  Level Chicago Center
05:42PM 40.5619 -89.8869 21° North 494 568 33,000 -1,260 Level Chicago Center
05:44PM 40.8361 -89.7475 21° North 479 551 29,200 -1,920 Descending Chicago Center
05:45PM 40.9608 -89.6864 20° North 480 552 27,200 -1,980 Descending Chicago Center
05:46PM 41.0894 -89.6231 20° North 487 560 25,200 -1,860 Descending Chicago Center
05:47PM 41.1894 -89.5117 40° Northeast 472 543 23,400 -1,680 Descending Chicago Center
05:48PM 41.2519 -89.3619 61° Northeast 459 528 21,700 -2,340 Descending Chicago Center
05:49PM 41.3192 -89.1922 62° Northeast 439 505 18,600 -2,580 Descending Chicago Center
05:50PM 41.3758 -89.0506 62° Northeast 439 505 16,400 -2,220 Descending Chicago Center
05:51PM 41.4322 -88.9108 62° Northeast 434 499 14,100 -1,860 Descending Chicago Center
05:52PM 41.4833 -88.7825 62° Northeast 397 457 12,600 -1,200 Descending Chicago Center
05:53PM 41.5264 -88.6725 62° Northeast 338 389 11,700 -720 Descending Chicago Center
05:54PM 41.5675 -88.5675 62° Northeast 322 371 11,200 -720 Descending Chicago Center
05:55PM 41.6225 -88.4442 59° Northeast 322 371 10,300 -960 Descending Chicago Center
05:56PM 41.6764 -88.3525 52° Northeast 315 362 9,300 -840 Descending Chicago Center
05:57PM 41.7408 -88.2764 41° Northeast 322 371 8,600 -1,020 Descending Chicago Center
05:58PM 41.8264 -88.2828 357° North 308 354 7,300 -1,620 Descending Chicago Center
06:00PM 41.9081 -88.2942 354° North 298 343 5,300 -1,620 Descending Chicago Center
06:01PM 41.9725 -88.2633 20° North 260 299 4,000 -720 Descending Chicago Center
06:02PM 41.9694 -88.1919 93° East 216 249 3,900 -300 Descending Chicago Center
06:03PM 41.9675 -88.1219 92° East 198 228 3,400 -540 Descending Chicago Center